Rostein — LLHI — position and weather

sailwx.info

Track history (hours):
 
Tides and Currents Weather Stations Pressure Air Temp Water Temp Dewpoint Dewpoint Depression Visibility Wind Speed Wind Dir Waves Ship Positions

Rostein

Last reported at 2014-Sep-01 12:10 UTC. Time now 2014-Sep-02 19:21 UTC.
Position N 69°44' E 030°02'.

Length 57 m; draft 5 m.

Type: Cargo ship. MMSI: 257210000.

Date/timePositionNaut miles runAvg speedWind from/ knotsBaromVisibWave heightAir tempDewpointWater temp
2014-Sep-01 12:10N 69°44' E 030°02'0 0.0
2014-Sep-01 11:23N 69°44' E 030°02'  
2014-Aug-29 18:34N 69°44' E 019°06'7 7.1
2014-Aug-29 17:34N 69°38' E 018°56'0 0.0
2014-Aug-29 16:33N 69°38' E 018°56'0 0.0
2014-Aug-29 15:34N 69°38' E 018°56'0 0.0
2014-Aug-29 14:34N 69°38' E 018°56'0 0.0
2014-Aug-29 13:34N 69°38' E 018°56'0 0.0
2014-Aug-29 12:34N 69°38' E 018°56'0 0.0
2014-Aug-29 11:33N 69°38' E 018°56'0 0.0
2014-Aug-29 10:34N 69°38' E 018°56'0 0.0
2014-Aug-29 09:34N 69°38' E 018°56'0 0.0
2014-Aug-29 08:34N 69°38' E 018°56'0 0.0
2014-Aug-29 07:34N 69°38' E 018°56'0 0.0
2014-Aug-29 06:33N 69°38' E 018°56'0 0.0
2014-Aug-29 05:34N 69°38' E 018°56'0 0.0
2014-Aug-29 04:33N 69°38' E 018°56'0 0.0
2014-Aug-29 03:33N 69°38' E 018°56'0 0.0
2014-Aug-29 02:34N 69°38' E 018°56'6 0.5
2014-Aug-28 14:33N 69°44' E 019°04'12 0.9
2014-Aug-28 01:33N 69°34' E 018°46'1110.9
2014-Aug-28 00:33N 69°43' E 019°02'3 0.2
2014-Aug-27 11:34N 69°46' E 019°04'7 6.7
2014-Aug-27 10:34N 69°39' E 018°58'0 0.0
2014-Aug-27 09:34N 69°39' E 018°58'0 0.0
2014-Aug-27 08:34N 69°39' E 018°58'  
2014-Aug-24 16:13N 69°45' E 019°06'6 9.4
2014-Aug-24 15:33N 69°39' E 018°59'5 0.4
2014-Aug-24 03:33N 69°35' E 018°50'1010.4
2014-Aug-24 02:34N 69°44' E 019°05'  
Track history (hours):
 
Tides and Currents Weather Stations Pressure Air Temp Water Temp Dewpoint Dewpoint Depression Visibility Wind Speed Wind Dir Waves Ship Positions

Rostein

Last reported at 2014-Sep-01 12:10 UTC. Time now 2014-Sep-02 19:21 UTC.
Position N 69°44' E 030°02'.

Length 57 m; draft 5 m.

Type: Cargo ship. MMSI: 257210000.

Date/timePositionNaut miles runAvg speedWind from/ knotsBaromVisibWave heightAir tempDewpointWater temp
2014-Sep-01 12:10N 69°44' E 030°02'0 0.0
2014-Sep-01 11:23N 69°44' E 030°02'  
2014-Aug-29 18:34N 69°44' E 019°06'7 7.1
2014-Aug-29 17:34N 69°38' E 018°56'0 0.0
2014-Aug-29 16:33N 69°38' E 018°56'0 0.0
2014-Aug-29 15:34N 69°38' E 018°56'0 0.0
2014-Aug-29 14:34N 69°38' E 018°56'0 0.0
2014-Aug-29 13:34N 69°38' E 018°56'0 0.0
2014-Aug-29 12:34N 69°38' E 018°56'0 0.0
2014-Aug-29 11:33N 69°38' E 018°56'0 0.0
2014-Aug-29 10:34N 69°38' E 018°56'0 0.0
2014-Aug-29 09:34N 69°38' E 018°56'0 0.0
2014-Aug-29 08:34N 69°38' E 018°56'0 0.0
2014-Aug-29 07:34N 69°38' E 018°56'0 0.0
2014-Aug-29 06:33N 69°38' E 018°56'0 0.0
2014-Aug-29 05:34N 69°38' E 018°56'0 0.0
2014-Aug-29 04:33N 69°38' E 018°56'0 0.0
2014-Aug-29 03:33N 69°38' E 018°56'0 0.0
2014-Aug-29 02:34N 69°38' E 018°56'6 0.5
2014-Aug-28 14:33N 69°44' E 019°04'12 0.9
2014-Aug-28 01:33N 69°34' E 018°46'1110.9
2014-Aug-28 00:33N 69°43' E 019°02'3 0.2
2014-Aug-27 11:34N 69°46' E 019°04'7 6.7
2014-Aug-27 10:34N 69°39' E 018°58'0 0.0
2014-Aug-27 09:34N 69°39' E 018°58'0 0.0
2014-Aug-27 08:34N 69°39' E 018°58'  
2014-Aug-24 16:13N 69°45' E 019°06'6 9.4
2014-Aug-24 15:33N 69°39' E 018°59'5 0.4
2014-Aug-24 03:33N 69°35' E 018°50'1010.4
2014-Aug-24 02:34N 69°44' E 019°05'  

Dump ship's entire track history